Ulm, AR (72170)

5:13 AM CDT on July 31, 2014 (GMT -0500)
Stuttgart Municipal (KSGT) Elev 223 ft | 34.60 °N, 91.57 °W | Change Station

Current weather conditions updated 18 minutes ago

Overcast
Overcast
66 °F
Feels Like 66 °F
N
5
Wind Variable Wind from NE

Today is forecast to be Much Cooler than yesterday. Cloudy, periods of rain.

Today
High -- | Low -- °F
--% Chance of Precip.
Yesterday
High -- | Low -- °F
Precip. -- in
6:15 AM 8:08 PM
Waxing Crescent, 17% visible
Pressure 30.09 in
Visibility 8.0 miles
Clouds Few 800 ft
Mostly Cloudy 2000 ft
Overcast 7000 ft
Dew Point 64 °F
Humidity 94%
Rainfall 0.33 in
Snow Depth Not available.
UV 0 out of 12
Pollen 3.90 out of 12
Air Quality Not available.
Flu Activity Not available.
METAR KSGT 310955Z AUTO 04004KT 8SM FEW008 BKN020 OVC070 19/18 A3009 RMK AO1 P0004

More Conditions Fewer Conditions

Pressure 30.09 in
Visibility 8.0 miles
Clouds Few 800 ft
Mostly Cloudy 2000 ft
Overcast 7000 ft
Dew Point 64 °F
Humidity 94%
Rainfall 0.33 in
Snow Depth Not available.
UV 0 out of 12
Pollen 3.90 out of 12
Air Quality Not available.
Flu Activity Not available.
METAR KSGT 310955Z AUTO 04004KT 8SM FEW008 BKN020 OVC070 19/18 A3009 RMK AO1 P0004

More Conditions Fewer Conditions

10-Day Weather Forecast

Almanac

Astronomy

Jul. 31, 2014 Rise Set
Actual Time 6:15 AM CDT 8:08 PM CDT
Civil Twilight 5:47 AM CDT 8:36 PM CDT
Nautical Twilight 5:14 AM CDT 9:09 PM CDT
Astronomical Twilight 4:38 AM CDT 9:45 PM CDT
Moon 10:30 AM CDT 10:36 PM CDT
Length of Visible Light 14h 48m
Length of Day
13h 53m
Tomorrow will be 1m 35s shorter.
Waxing Crescent, 17% of the Moon is Illuminated
Today
Waxing Crescent
Aug 3
First Quarter
Aug 10
Full
Aug 17
Last Quarter
Aug 25
New

Today's Extremes

State Highs State Lows

Community

WunderPhotos

Upload Photos

1,739,284 photos uploaded!

Nearby

Snow Depth

Station Depth Elevation
No new snow has been reported.

Earthquake Activity

City Distance Mag. Time & Date
No recent earthquake activity has been reported nearby.
Minimum magnitude displayed is 2.5.

Coastal Water Temperatures

Place Temperature
No Stations Reporting

Nearby Weather Stations

Station Location Temp. Dew Point Humidity Wind Precip. Elev Updated Type
MesoWest STGRTN , Ulm, AR 69 °F - - North  at  - 0.00 in / hr 209 ft 3:05 AM CDT MADIS
MesoWest STGRTS , Stuttgart, AR 66 °F - - North  at  - 0.00 in / hr 203 ft 3:20 AM CDT MADIS
MesoWest ROE , Clarendon, AR 71 °F - - North  at  - 0.00 in / hr 182 ft 2:50 AM CDT MADIS
Court Square, De Witt, AR 66.7 °F 62 °F 85% NNE  at  0.0 mph 0.00 in / hr 197 ft 5:13 AM CDT Rapid Fire
SW DeWitt, De Witt, AR 67.9 °F 65 °F 92% WNW  at  0.4 mph 0.00 in / hr 190 ft 5:13 AM CDT Rapid Fire
MesoWest UAPB DeWitt , De Witt, AR 68 °F 67 °F 96% North  at  2 mph 0.05 in / hr 196 ft 4:00 AM CDT MADIS

Show More Stations Show Fewer Stations